createdAt,value
2019-01-29T00:02:08.318Z,3.96
2019-01-29T00:04:35.084Z,3.84
2019-01-29T00:07:01.928Z,3.80
2019-01-29T00:09:28.754Z,3.82
2019-01-29T00:11:55.973Z,3.79
2019-01-29T00:14:22.737Z,3.83
2019-01-29T00:16:49.454Z,3.85
2019-01-29T00:19:16.194Z,3.81
2019-01-29T00:21:42.934Z,3.75
2019-01-29T00:24:10.580Z,3.76
2019-01-29T00:26:37.336Z,3.74
2019-01-29T00:29:04.095Z,3.64
2019-01-29T00:31:30.874Z,3.69
2019-01-29T00:33:57.981Z,3.65
2019-01-29T00:36:24.695Z,3.74
2019-01-29T00:38:51.453Z,3.80
2019-01-29T00:41:18.158Z,3.84
2019-01-29T00:43:45.338Z,3.83
2019-01-29T00:46:12.065Z,3.90
2019-01-29T00:48:38.837Z,3.96
2019-01-29T00:51:05.556Z,3.77
2019-01-29T00:53:33.834Z,3.81
2019-01-29T00:56:00.540Z,3.68
2019-01-29T00:58:27.280Z,3.65
2019-01-29T01:00:53.984Z,3.65
2019-01-29T01:03:20.691Z,3.61
2019-01-29T01:05:47.422Z,3.54
2019-01-29T01:08:14.130Z,3.57
2019-01-29T01:10:41.046Z,3.53
2019-01-29T01:13:07.764Z,3.48
2019-01-29T01:15:34.505Z,3.53
2019-01-29T01:18:01.266Z,3.53
2019-01-29T01:20:30.077Z,3.58
2019-01-29T01:22:57.142Z,3.64
2019-01-29T01:25:23.918Z,3.64
2019-01-29T01:27:50.751Z,3.49
2019-01-29T01:30:17.903Z,3.53
2019-01-29T01:32:44.645Z,3.54
2019-01-29T01:35:11.383Z,3.63
2019-01-29T01:37:38.149Z,3.69
2019-01-29T01:40:08.084Z,3.69
2019-01-29T01:42:34.921Z,3.65
2019-01-29T01:45:02.237Z,3.61
2019-01-29T01:47:28.945Z,3.53
2019-01-29T01:49:55.829Z,3.55
2019-01-29T01:52:22.562Z,3.65
2019-01-29T01:54:49.301Z,3.76
2019-01-29T01:57:16.059Z,3.76
2019-01-29T01:59:44.589Z,3.73
2019-01-29T02:02:11.509Z,3.64
2019-01-29T02:04:38.271Z,3.68
2019-01-29T02:07:07.247Z,3.70
2019-01-29T02:09:34.137Z,3.69
2019-01-29T02:12:00.875Z,3.75
2019-01-29T02:14:27.633Z,3.77
2019-01-29T02:16:54.328Z,3.73
2019-01-29T02:19:21.061Z,3.75
2019-01-29T02:21:47.900Z,3.74
2019-01-29T02:24:14.667Z,3.71
2019-01-29T02:26:41.383Z,3.70
2019-01-29T02:29:10.106Z,3.71
2019-01-29T02:31:36.852Z,3.68
2019-01-29T02:34:03.679Z,3.70
2019-01-29T02:36:32.483Z,3.72
2019-01-29T02:38:59.238Z,3.72
2019-01-29T02:41:25.945Z,3.74
2019-01-29T02:43:52.723Z,3.76
2019-01-29T02:46:19.464Z,3.77
2019-01-29T02:52:15.939Z,3.72
2019-01-29T02:54:42.798Z,3.61
2019-01-29T02:57:12.473Z,3.61
2019-01-29T02:59:39.656Z,3.60
2019-01-29T03:02:06.442Z,3.61
2019-01-29T03:04:33.216Z,3.72
2019-01-29T03:06:59.935Z,3.64
2019-01-29T03:09:26.633Z,3.53
2019-01-29T03:11:53.451Z,3.47
2019-01-29T03:14:20.278Z,3.52
2019-01-29T03:16:46.989Z,3.60
2019-01-29T03:19:13.721Z,3.67
2019-01-29T03:21:40.494Z,3.59
2019-01-29T03:24:07.211Z,3.58
2019-01-29T03:26:33.937Z,3.54
2019-01-29T03:29:00.677Z,3.56
2019-01-29T03:31:27.401Z,3.56
2019-01-29T03:33:54.126Z,3.56
2019-01-29T03:36:20.853Z,3.61
2019-01-29T03:38:47.563Z,3.68
2019-01-29T03:41:14.282Z,3.68
2019-01-29T03:43:41.004Z,3.66
2019-01-29T03:46:08.070Z,3.55
2019-01-29T03:48:34.769Z,3.56
2019-01-29T03:51:01.517Z,3.58
2019-01-29T03:53:37.817Z,3.66
2019-01-29T03:55:59.391Z,3.75
2019-01-29T03:58:26.124Z,3.67
2019-01-29T04:00:52.882Z,3.62
2019-01-29T04:03:21.576Z,3.69
2019-01-29T04:05:48.314Z,3.73
2019-01-29T04:08:16.527Z,3.84
2019-01-29T04:10:43.199Z,3.82
2019-01-29T04:13:09.909Z,3.79
2019-01-29T04:15:36.920Z,3.81
2019-01-29T04:18:03.656Z,3.84
2019-01-29T04:20:30.738Z,3.79
2019-01-29T04:22:57.502Z,3.76
2019-01-29T04:25:24.232Z,3.88
2019-01-29T04:27:50.969Z,3.74
2019-01-29T04:30:19.258Z,3.79
2019-01-29T04:32:45.956Z,3.90
2019-01-29T04:35:13.992Z,3.92
2019-01-29T04:37:40.717Z,3.96
2019-01-29T04:40:09.406Z,3.90
2019-01-29T04:42:36.195Z,3.88
2019-01-29T04:45:04.347Z,3.92
2019-01-29T04:47:31.191Z,3.95
2019-01-29T04:49:58.023Z,3.92
2019-01-29T04:52:24.765Z,3.89
2019-01-29T04:54:51.488Z,3.88
2019-01-29T04:57:18.242Z,3.86
2019-01-29T04:59:45.010Z,3.79
2019-01-29T05:02:11.731Z,3.72
2019-01-29T05:04:38.455Z,3.54
2019-01-29T05:07:05.229Z,3.47
2019-01-29T05:09:31.948Z,3.59
2019-01-29T05:11:58.683Z,3.59
2019-01-29T05:14:25.783Z,3.64
2019-01-29T05:16:52.780Z,3.60
2019-01-29T05:19:20.451Z,3.60
2019-01-29T05:21:47.211Z,3.50
2019-01-29T05:24:13.967Z,3.59
2019-01-29T05:26:40.801Z,3.52
2019-01-29T05:29:07.543Z,3.52
2019-01-29T05:31:34.310Z,3.61
2019-01-29T05:34:01.138Z,3.58
2019-01-29T05:36:27.891Z,3.56
2019-01-29T05:38:54.911Z,3.50
2019-01-29T05:41:21.656Z,3.45
2019-01-29T05:43:48.363Z,3.45
2019-01-29T05:46:15.118Z,3.45
2019-01-29T05:48:41.841Z,3.37
2019-01-29T05:51:08.886Z,3.21
2019-01-29T05:53:35.964Z,3.30
2019-01-29T05:56:02.726Z,3.35
2019-01-29T05:58:29.437Z,3.37
2019-01-29T06:00:56.211Z,3.39
2019-01-29T06:03:22.955Z,3.38
2019-01-29T06:05:49.969Z,3.38
2019-01-29T06:08:17.205Z,3.36
2019-01-29T06:10:46.061Z,3.30
2019-01-29T06:13:12.746Z,3.26
2019-01-29T06:15:39.465Z,3.33
2019-01-29T06:18:06.279Z,3.30
2019-01-29T06:20:33.002Z,3.44
2019-01-29T06:22:59.723Z,3.42
2019-01-29T06:25:26.484Z,3.33
2019-01-29T06:27:53.353Z,3.36
2019-01-29T06:30:22.551Z,3.39
2019-01-29T06:32:49.309Z,3.44
2019-01-29T06:35:16.949Z,3.53
2019-01-29T06:37:43.697Z,3.64
2019-01-29T06:40:12.761Z,3.57
2019-01-29T06:42:39.755Z,3.47
2019-01-29T06:45:09.214Z,3.42
2019-01-29T06:47:36.035Z,3.53
2019-01-29T06:50:08.271Z,3.69
2019-01-29T06:52:35.011Z,3.77
2019-01-29T06:55:01.753Z,3.78
2019-01-29T06:57:28.491Z,3.76
2019-01-29T06:59:55.261Z,3.76
2019-01-29T07:02:22.045Z,3.68
2019-01-29T07:04:49.089Z,3.76
2019-01-29T07:07:16.132Z,3.73
2019-01-29T07:09:42.923Z,3.74
2019-01-29T07:12:09.809Z,3.81
2019-01-29T07:14:38.690Z,3.87
2019-01-29T07:17:34.119Z,3.90
2019-01-29T07:20:04.331Z,3.89
2019-01-29T07:22:31.238Z,3.85
2019-01-29T07:24:57.947Z,3.93
2019-01-29T07:27:24.858Z,3.84
2019-01-29T07:29:51.889Z,3.85
2019-01-29T07:32:18.737Z,3.90
2019-01-29T07:34:45.455Z,3.79
2019-01-29T07:37:21.765Z,3.79
2019-01-29T07:39:45.175Z,3.68
2019-01-29T07:42:12.325Z,3.66
2019-01-29T07:44:39.385Z,3.71
2019-01-29T07:47:08.036Z,3.58
2019-01-29T07:49:35.243Z,3.61
2019-01-29T07:52:01.971Z,3.65
2019-01-29T07:54:33.379Z,3.72
2019-01-29T07:56:59.535Z,3.77
2019-01-29T07:59:33.124Z,3.83
2019-01-29T08:01:57.543Z,3.93
2019-01-29T08:04:24.393Z,4.00
2019-01-29T08:06:51.132Z,3.98
2019-01-29T08:09:18.319Z,4.00
2019-01-29T08:11:45.345Z,3.98
2019-01-29T08:14:12.140Z,3.95
2019-01-29T08:16:38.982Z,3.99
2019-01-29T08:19:06.041Z,4.11
2019-01-29T08:21:32.979Z,4.15
2019-01-29T08:23:59.785Z,4.10
2019-01-29T08:26:26.951Z,4.26
2019-01-29T08:28:53.772Z,4.16
2019-01-29T08:31:20.782Z,4.06
2019-01-29T08:33:47.760Z,4.09
2019-01-29T08:36:14.855Z,4.17
2019-01-29T08:38:42.844Z,4.21
2019-01-29T08:41:12.344Z,4.19
2019-01-29T08:43:39.058Z,4.29
2019-01-29T08:46:05.871Z,4.40
2019-01-29T08:48:32.732Z,4.43
2019-01-29T08:50:59.677Z,4.29
2019-01-29T08:53:29.204Z,4.20
2019-01-29T08:55:56.282Z,4.13
2019-01-29T08:58:27.275Z,4.12
2019-01-29T09:00:51.720Z,4.26
2019-01-29T09:03:18.585Z,4.41
2019-01-29T09:05:48.248Z,4.50
2019-01-29T09:08:14.998Z,4.50
2019-01-29T09:10:41.718Z,4.57
2019-01-29T09:13:08.540Z,4.57
2019-01-29T09:15:35.228Z,4.41
2019-01-29T09:18:04.246Z,4.38
2019-01-29T09:20:30.972Z,4.40
2019-01-29T09:22:57.879Z,4.52
2019-01-29T09:25:24.785Z,4.65
2019-01-29T09:27:51.582Z,4.65
2019-01-29T09:30:20.535Z,4.68
2019-01-29T09:32:47.348Z,4.51
2019-01-29T09:35:14.233Z,4.48
2019-01-29T09:37:41.093Z,4.62
2019-01-29T09:40:14.768Z,4.63
2019-01-29T09:42:41.801Z,4.71
2019-01-29T09:45:13.334Z,4.60
2019-01-29T09:47:40.220Z,4.69
2019-01-29T09:50:08.222Z,4.74
2019-01-29T09:52:35.226Z,4.77
2019-01-29T09:55:02.572Z,4.61
2019-01-29T09:57:29.313Z,4.68
2019-01-29T09:59:56.106Z,4.80
2019-01-29T10:02:23.351Z,4.69
2019-01-29T10:04:50.136Z,4.88
2019-01-29T10:07:16.852Z,4.88
2019-01-29T10:09:43.758Z,4.97
2019-01-29T10:12:12.811Z,4.91
2019-01-29T10:14:39.586Z,5.02
2019-01-29T10:17:06.431Z,5.02
2019-01-29T10:19:33.151Z,5.02
2019-01-29T10:21:59.939Z,5.03
2019-01-29T10:24:26.885Z,4.91
2019-01-29T10:26:55.517Z,5.09
2019-01-29T10:29:24.112Z,5.09
2019-01-29T10:31:50.884Z,4.92
2019-01-29T10:34:17.626Z,4.92
2019-01-29T10:36:44.401Z,5.17
2019-01-29T10:39:13.277Z,5.17
2019-01-29T10:41:40.106Z,5.10
2019-01-29T10:44:06.904Z,5.23
2019-01-29T10:46:34.074Z,5.33
2019-01-29T10:49:01.491Z,5.49
2019-01-29T10:51:28.307Z,5.39
2019-01-29T10:53:55.330Z,5.30
2019-01-29T10:56:22.187Z,5.30
2019-01-29T10:58:49.148Z,5.35
2019-01-29T11:01:15.915Z,5.47
2019-01-29T11:03:43.038Z,5.46
2019-01-29T11:06:09.967Z,5.36
2019-01-29T11:08:37.141Z,5.46
2019-01-29T11:11:04.140Z,5.55
2019-01-29T11:13:33.630Z,5.55
2019-01-29T11:16:00.746Z,5.70
2019-01-29T11:18:27.592Z,5.69
2019-01-29T11:20:54.451Z,5.57
2019-01-29T11:23:21.253Z,5.68
2019-01-29T11:25:56.139Z,5.68
2019-01-29T11:28:19.861Z,5.84
2019-01-29T11:30:46.822Z,5.74
2019-01-29T11:33:13.600Z,5.92
2019-01-29T11:35:40.689Z,5.92
2019-01-29T11:38:07.955Z,5.86
2019-01-29T11:40:35.568Z,5.76
2019-01-29T11:43:02.402Z,5.86
2019-01-29T11:45:32.774Z,5.87
2019-01-29T11:47:59.469Z,5.87
2019-01-29T11:50:26.301Z,5.69
2019-01-29T11:52:53.117Z,5.85
2019-01-29T11:55:20.276Z,5.85
2019-01-29T11:57:47.149Z,5.87
2019-01-29T12:00:20.362Z,6.03
2019-01-29T12:02:47.680Z,6.03
2019-01-29T12:05:18.763Z,5.91
2019-01-29T12:07:45.589Z,5.87
2019-01-29T12:10:12.740Z,5.84
2019-01-29T12:12:41.201Z,6.01
2019-01-29T12:15:09.451Z,6.02
2019-01-29T12:17:36.639Z,6.02
2019-01-29T12:20:04.385Z,6.05
2019-01-29T12:22:31.111Z,5.93
2019-01-29T12:24:57.954Z,5.90
2019-01-29T12:27:25.592Z,5.90
2019-01-29T12:29:52.573Z,6.04
2019-01-29T12:32:23.862Z,6.18
2019-01-29T12:34:51.120Z,6.26
2019-01-29T12:37:17.855Z,6.27
2019-01-29T12:39:44.573Z,6.30
2019-01-29T12:42:11.737Z,6.30
2019-01-29T12:44:39.682Z,6.37
2019-01-29T12:47:06.484Z,6.36
2019-01-29T12:49:33.280Z,6.54
2019-01-29T12:52:21.919Z,6.52
2019-01-29T12:54:48.862Z,6.41
2019-01-29T12:57:15.974Z,6.43
2019-01-29T12:59:42.853Z,6.43
2019-01-29T13:02:09.555Z,6.55
2019-01-29T13:04:36.506Z,6.55
2019-01-29T13:07:03.248Z,6.60
2019-01-29T13:09:30.642Z,6.64
2019-01-29T13:11:57.381Z,6.73
2019-01-29T13:14:24.222Z,6.64
2019-01-29T13:16:51.342Z,6.50
2019-01-29T13:19:18.079Z,6.50
2019-01-29T13:21:45.151Z,6.44
2019-01-29T13:24:11.900Z,6.50
2019-01-29T13:26:39.439Z,6.37
2019-01-29T13:29:06.188Z,6.44
2019-01-29T13:31:32.981Z,6.33
2019-01-29T13:33:59.711Z,6.32
2019-01-29T13:36:26.802Z,6.36
2019-01-29T13:38:56.615Z,6.36
2019-01-29T13:41:30.119Z,6.36
2019-01-29T13:43:56.971Z,6.47
2019-01-29T13:46:23.715Z,6.97
2019-01-29T13:48:51.008Z,7.27
2019-01-29T13:51:18.587Z,7.21
2019-01-29T13:53:48.110Z,7.08
2019-01-29T13:56:14.846Z,7.06
2019-01-29T13:58:41.884Z,6.97
2019-01-29T14:01:09.170Z,6.88
2019-01-29T14:03:38.875Z,6.73
2019-01-29T14:06:06.090Z,6.73
2019-01-29T14:08:33.096Z,6.97
2019-01-29T14:11:01.746Z,7.12
2019-01-29T14:13:28.867Z,7.08
2019-01-29T14:15:57.909Z,7.31
2019-01-29T14:18:27.318Z,7.26
2019-01-29T14:20:54.166Z,7.39
2019-01-29T14:23:21.052Z,7.07
2019-01-29T14:25:47.848Z,6.72
2019-01-29T14:28:14.635Z,6.72
2019-01-29T14:30:41.521Z,6.70
2019-01-29T14:33:11.730Z,6.88
2019-01-29T14:35:40.562Z,6.83
2019-01-29T14:38:58.440Z,6.83
2019-01-29T14:41:25.196Z,6.96
2019-01-29T14:43:59.063Z,6.64
2019-01-29T14:46:25.973Z,6.61
2019-01-29T14:48:53.156Z,6.76
2019-01-29T14:51:20.653Z,6.76
2019-01-29T14:53:47.722Z,6.73
2019-01-29T14:56:15.051Z,6.82
2019-01-29T14:58:41.898Z,6.90
2019-01-29T15:01:08.791Z,6.90
2019-01-29T15:03:35.867Z,6.75
2019-01-29T15:06:05.701Z,6.61
2019-01-29T15:08:32.456Z,6.49
2019-01-29T15:11:00.295Z,6.49
2019-01-29T15:13:33.976Z,6.42
2019-01-29T15:16:26.371Z,6.52
2019-01-29T15:18:57.708Z,6.42
2019-01-29T15:21:24.590Z,6.22
2019-01-29T15:23:51.456Z,6.22
2019-01-29T15:26:18.189Z,6.15
2019-01-29T15:28:49.224Z,6.13
2019-01-29T15:31:21.797Z,6.07
2019-01-29T15:33:48.688Z,6.22
2019-01-29T15:36:16.794Z,6.13
2019-01-29T15:38:44.244Z,6.13
2019-01-29T15:41:11.040Z,6.09
2019-01-29T15:43:38.028Z,5.93
2019-01-29T15:46:06.121Z,5.93
2019-01-29T15:48:33.190Z,5.87
2019-01-29T15:50:59.921Z,5.87
2019-01-29T15:53:26.648Z,5.95
2019-01-29T15:55:53.576Z,5.87
2019-01-29T15:58:20.429Z,5.85
2019-01-29T16:00:50.550Z,5.65
2019-01-29T16:03:17.340Z,5.65
2019-01-29T16:05:44.103Z,5.70
2019-01-29T16:08:10.982Z,5.71
2019-01-29T16:10:39.725Z,5.64
2019-01-29T16:13:07.060Z,5.64
2019-01-29T16:15:34.126Z,5.64
2019-01-29T16:18:00.791Z,5.66
2019-01-29T16:20:27.522Z,5.72
2019-01-29T16:22:56.900Z,5.75
2019-01-29T16:25:24.522Z,5.71
2019-01-29T16:27:51.347Z,5.69
2019-01-29T16:30:20.448Z,5.69
2019-01-29T16:32:47.478Z,5.68
2019-01-29T16:35:16.455Z,5.70
2019-01-29T16:37:43.263Z,5.70
2019-01-29T16:40:11.090Z,5.72
2019-01-29T16:42:37.972Z,5.47
2019-01-29T16:45:05.214Z,5.41
2019-01-29T16:47:32.048Z,5.44
2019-01-29T16:49:58.812Z,5.34
2019-01-29T16:52:25.569Z,5.34
2019-01-29T16:54:52.363Z,5.44
2019-01-29T16:57:19.244Z,5.44
2019-01-29T16:59:46.177Z,5.38
2019-01-29T17:02:13.049Z,5.19
2019-01-29T17:04:39.939Z,5.19
2019-01-29T17:07:06.708Z,5.15
2019-01-29T17:09:33.569Z,5.07
2019-01-29T17:12:00.459Z,5.04
2019-01-29T17:14:27.233Z,5.04
2019-01-29T17:16:54.021Z,5.01
2019-01-29T17:19:20.962Z,4.88
2019-01-29T17:21:47.843Z,4.81
2019-01-29T17:24:14.726Z,4.91
2019-01-29T17:27:07.602Z,4.91
2019-01-29T17:29:36.266Z,4.90
2019-01-29T17:32:02.991Z,4.76
2019-01-29T17:34:30.053Z,4.65
2019-01-29T17:36:58.832Z,4.65
2019-01-29T17:39:25.586Z,4.59
2019-01-29T17:41:52.582Z,4.44
2019-01-29T17:44:19.330Z,4.33
2019-01-29T17:46:46.204Z,4.36
2019-01-29T17:49:13.056Z,4.36
2019-01-29T17:51:39.763Z,4.27
2019-01-29T17:54:07.659Z,4.25
2019-01-29T17:56:36.963Z,4.25
2019-01-29T17:59:03.796Z,4.24
2019-01-29T18:01:30.761Z,4.14
2019-01-29T18:03:57.730Z,4.05
2019-01-29T18:06:24.527Z,4.05
2019-01-29T18:08:52.003Z,4.17
2019-01-29T18:11:18.784Z,4.10
2019-01-29T18:13:46.278Z,4.03
2019-01-29T18:16:15.146Z,4.02
2019-01-29T18:18:42.597Z,4.02
2019-01-29T18:21:09.463Z,3.91
2019-01-29T18:23:36.209Z,3.91
2019-01-29T18:26:03.147Z,3.82
2019-01-29T18:28:30.118Z,3.75
2019-01-29T18:30:57.028Z,3.76
2019-01-29T18:33:23.881Z,3.70
2019-01-29T18:35:50.744Z,3.62
2019-01-29T18:38:17.521Z,3.62
2019-01-29T18:40:48.192Z,3.45
2019-01-29T18:43:15.066Z,3.45
2019-01-29T18:45:43.993Z,3.34
2019-01-29T18:48:11.257Z,3.34
2019-01-29T18:50:38.067Z,3.47
2019-01-29T18:53:04.969Z,3.53
2019-01-29T18:55:31.809Z,3.52
2019-01-29T18:58:11.231Z,3.58
2019-01-29T19:00:29.715Z,3.53
2019-01-29T19:02:57.111Z,3.55
2019-01-29T19:05:24.113Z,3.59
2019-01-29T19:07:50.938Z,3.52
2019-01-29T19:10:18.374Z,3.57
2019-01-29T19:12:45.269Z,3.57
2019-01-29T19:15:17.296Z,3.55
2019-01-29T19:17:44.514Z,3.50
2019-01-29T19:20:12.215Z,3.44
2019-01-29T19:22:39.222Z,3.46
2019-01-29T19:25:07.946Z,3.42
2019-01-29T19:27:34.819Z,3.42
2019-01-29T19:30:01.653Z,3.42
2019-01-29T19:32:28.431Z,3.38
2019-01-29T19:34:55.445Z,3.19
2019-01-29T19:37:24.551Z,3.17
2019-01-29T19:39:51.365Z,3.08
2019-01-29T19:42:27.339Z,3.08
2019-01-29T19:44:50.384Z,3.07
2019-01-29T19:47:17.168Z,3.04
2019-01-29T19:49:44.077Z,3.04
2019-01-29T19:52:10.785Z,3.04
2019-01-29T19:54:37.819Z,3.00
2019-01-29T19:57:05.093Z,3.13
2019-01-29T19:59:31.873Z,3.15
2019-01-29T20:01:58.709Z,3.17
2019-01-29T20:04:25.637Z,3.25
2019-01-29T20:06:52.499Z,3.26
2019-01-29T20:09:20.559Z,3.23
2019-01-29T20:11:47.396Z,3.25
2019-01-29T20:14:14.421Z,3.17
2019-01-29T20:16:41.209Z,3.17
2019-01-29T20:19:10.336Z,3.15
2019-01-29T20:21:39.730Z,3.23
2019-01-29T20:24:08.806Z,3.24
2019-01-29T20:26:35.522Z,3.20
2019-01-29T20:29:02.285Z,3.10
2019-01-29T20:31:29.561Z,3.10
2019-01-29T20:33:56.666Z,3.10
2019-01-29T20:36:23.714Z,3.10
2019-01-29T20:38:53.081Z,3.12
2019-01-29T20:41:19.986Z,3.12
2019-01-29T20:43:47.425Z,3.11
2019-01-29T20:46:14.267Z,3.11
2019-01-29T20:48:41.013Z,3.11
2019-01-29T20:51:10.189Z,3.12
2019-01-29T20:53:40.184Z,3.07
2019-01-29T20:56:06.923Z,2.97
2019-01-29T20:58:33.649Z,3.02
2019-01-29T21:01:01.215Z,3.06
2019-01-29T21:03:28.295Z,3.12
2019-01-29T21:05:55.318Z,3.12
2019-01-29T21:08:24.340Z,3.10
2019-01-29T21:10:51.416Z,3.05
2019-01-29T21:13:18.143Z,2.98
2019-01-29T21:15:45.858Z,2.96
2019-01-29T21:18:12.585Z,2.93
2019-01-29T21:20:39.675Z,2.94
2019-01-29T21:23:06.450Z,2.96
2019-01-29T21:25:33.578Z,2.93
2019-01-29T21:28:00.463Z,2.86
2019-01-29T21:30:36.260Z,2.86
2019-01-29T21:33:03.132Z,2.86
2019-01-29T21:35:29.875Z,2.85
2019-01-29T21:37:57.070Z,2.86
2019-01-29T21:40:26.525Z,2.85
2019-01-29T21:42:53.325Z,2.85
2019-01-29T21:45:21.375Z,2.85
2019-01-29T21:47:48.447Z,2.85
2019-01-29T21:50:17.252Z,2.91
2019-01-29T21:52:43.954Z,2.87
2019-01-29T21:55:10.887Z,2.82
2019-01-29T21:57:40.508Z,2.84
2019-01-29T22:00:11.590Z,2.90
2019-01-29T22:02:38.328Z,2.92
2019-01-29T22:05:07.322Z,2.83
2019-01-29T22:07:34.053Z,2.87
2019-01-29T22:10:00.816Z,2.92
2019-01-29T22:12:29.076Z,2.93
2019-01-29T22:14:55.797Z,2.97
2019-01-29T22:17:22.516Z,2.86
2019-01-29T22:19:49.226Z,2.74
2019-01-29T22:22:16.494Z,2.74
2019-01-29T22:24:43.218Z,2.78
2019-01-29T22:27:10.106Z,2.79
2019-01-29T22:29:39.236Z,2.82
2019-01-29T22:32:06.538Z,2.73
2019-01-29T22:34:33.457Z,2.67
2019-01-29T22:37:02.966Z,2.65
2019-01-29T22:39:29.696Z,2.65
2019-01-29T22:41:57.790Z,2.67
2019-01-29T22:44:24.848Z,2.56
2019-01-29T22:46:51.593Z,2.65
2019-01-29T22:49:18.553Z,2.67
2019-01-29T22:51:45.352Z,2.71
2019-01-29T22:54:12.226Z,2.65
2019-01-29T22:56:41.828Z,2.67
2019-01-29T22:59:11.440Z,2.69
2019-01-29T23:01:40.733Z,2.62
2019-01-29T23:04:15.706Z,2.54
2019-01-29T23:06:47.054Z,2.40
2019-01-29T23:09:13.810Z,2.42
2019-01-29T23:11:40.569Z,2.29
2019-01-29T23:14:07.318Z,2.23
2019-01-29T23:16:34.690Z,2.26
2019-01-29T23:19:01.434Z,2.28
2019-01-29T23:21:28.154Z,2.22
2019-01-29T23:23:55.946Z,2.20
2019-01-29T23:26:22.702Z,2.28
2019-01-29T23:28:49.490Z,2.33
2019-01-29T23:31:16.863Z,2.30
2019-01-29T23:33:45.607Z,2.40
2019-01-29T23:36:12.472Z,2.51
2019-01-29T23:38:39.542Z,2.48
2019-01-29T23:41:06.359Z,2.41
2019-01-29T23:43:33.105Z,2.33
2019-01-29T23:45:59.846Z,2.36
2019-01-29T23:48:28.036Z,2.44
2019-01-29T23:50:54.702Z,2.44
2019-01-29T23:53:21.451Z,2.49
2019-01-29T23:55:48.362Z,2.48
2019-01-29T23:58:15.271Z,2.51
